Time;durP1;ratioP1;P1;durP2;ratioP2;P2;SDS_P1;SDS_P2;PMS_P1;PMS_P2;Temp;Humidity;BMP_temperature;BMP_pressure;BME280_temperature;BME280_humidity;BME280_pressure;Samples;Min_cycle;Max_cycle;Signal;HPM_P1;HPM_P2
2021/08/18 00:00:45;;;;;;;;;;;;;;;-144.99;100.00;52448.09;5027412;28;19983;-79
2021/08/18 00:03:12;;;;;;;;;;;;;;;-144.99;100.00;52435.88;5031638;28;20055;-80
2021/08/18 00:05:39;;;;;;;;;;;;;;;-144.99;100.00;52450.13;5027694;28;19977;-80
2021/08/18 00:08:06;;;;;;;;;;;;;;;-144.99;100.00;52454.22;5038823;28;19986;-79
2021/08/18 00:10:33;;;;;;;;;;;;;;;-144.99;100.00;52439.94;5028578;28;19977;-79
2021/08/18 00:13:01;;;;;;;;;;;;;;;-144.99;100.00;52431.78;5019442;28;20070;-79
2021/08/18 00:15:28;;;;;;;;;;;;;;;-144.99;100.00;52444.03;5037796;28;20028;-80
2021/08/18 00:17:59;;;;;;;;;;;;;;;-144.99;100.00;52452.16;5050996;28;19993;-79
2021/08/18 00:20:26;;;;;;;;;;;;;;;-144.99;100.00;52415.47;5022792;28;20423;-80
2021/08/18 00:22:52;;;;;;;;;;;;;;;-144.99;100.00;52452.16;5020918;28;20037;-82
2021/08/18 00:25:19;;;;;;;;;;;;;;;-144.99;100.00;52460.31;5035707;28;20029;-80
2021/08/18 00:27:45;;;;;;;;;;;;;;;-144.99;100.00;52456.25;5025450;28;19981;-78
2021/08/18 00:30:13;;;;;;;;;;;;;;;-144.99;100.00;52480.72;5028187;28;20423;-81
2021/08/18 00:32:40;;;;;;;;;;;;;;;-144.99;100.00;52448.09;5033116;28;20455;-80
2021/08/18 00:35:07;;;;;;;;;;;;;;;-144.99;100.00;52446.06;5039537;28;20012;-78
2021/08/18 00:37:33;;;;;;;;;;;;;;;-144.99;100.00;52458.28;5030573;28;20082;-78
2021/08/18 00:40:00;;;;;;;;;;;;;;;-144.99;100.00;52431.78;5028443;28;20050;-78
2021/08/18 00:42:26;;;;;;;;;;;;;;;-144.99;100.00;52444.03;5037659;28;20062;-78
2021/08/18 00:44:54;;;;;;;;;;;;;;;-144.99;100.00;52439.94;5010905;28;20412;-78
2021/08/18 00:47:22;;;;;;;;;;;;;;;-144.99;100.00;52407.31;5012238;28;20019;-78
2021/08/18 00:49:48;;;;;;;;;;;;;;;-144.99;100.00;52423.63;5026074;28;20046;-80
2021/08/18 00:52:14;;;;;;;;;;;;;;;-144.99;100.00;52460.31;5036203;28;20028;-81
2021/08/18 00:54:41;;;;;;;;;;;;;;;-144.99;100.00;52415.47;5017207;28;20019;-80
2021/08/18 00:57:07;;;;;;;;;;;;;;;-144.99;100.00;52419.56;5025280;28;20044;-81
2021/08/18 00:59:34;;;;;;;;;;;;;;;-144.99;100.00;52480.72;5024337;28;20089;-80
2021/08/18 01:02:03;;;;;;;;;;;;;;;-144.99;100.00;52419.56;5035791;28;20497;-80
2021/08/18 01:04:31;;;;;;;;;;;;;;;-144.99;100.00;52464.41;5032324;28;20043;-79
2021/08/18 01:06:57;;;;;;;;;;;;;;;-144.99;100.00;52456.25;5025799;28;19977;-79
2021/08/18 01:09:23;;;;;;;;;;;;;;;-144.99;100.00;52423.63;5037115;28;20358;-80
2021/08/18 01:11:51;;;;;;;;;;;;;;;-144.99;100.00;52497.00;5033646;28;20018;-80
2021/08/18 01:14:19;;;;;;;;;;;;;;;-144.99;100.00;52427.72;5032682;28;19979;-80
2021/08/18 01:16:47;;;;;;;;;;;;;;;-144.99;100.00;52415.47;5019739;28;20001;-83
2021/08/18 01:19:15;;;;;;;;;;;;;;;-144.99;100.00;52454.22;5038168;28;19997;-81
2021/08/18 01:21:44;;;;;;;;;;;;;;;-144.99;100.00;52439.94;5035983;28;20012;-80
2021/08/18 01:24:11;;;;;;;;;;;;;;;-144.99;100.00;52415.47;5031691;28;20038;-80
2021/08/18 01:26:38;;;;;;;;;;;;;;;-144.99;100.00;52419.56;5014471;28;20035;-81
2021/08/18 01:29:06;;;;;;;;;;;;;;;-144.99;100.00;52448.09;5014227;28;20051;-80
2021/08/18 01:31:33;;;;;;;;;;;;;;;-144.99;100.00;52435.88;5033712;28;20412;-80
2021/08/18 01:34:01;;;;;;;;;;;;;;;-144.99;100.00;52468.47;5046417;28;20030;-80
2021/08/18 01:36:28;;;;;;;;;;;;;;;-144.99;100.00;52456.25;5023077;28;19974;-81
2021/08/18 01:38:54;;;;;;;;;;;;;;;-144.99;100.00;52480.72;5022988;28;19995;-80
2021/08/18 01:41:21;;;;;;;;;;;;;;;-144.99;100.00;52460.31;5019373;28;19972;-79
2021/08/18 01:43:47;;;;;;;;;;;;;;;-144.99;100.00;52423.63;5045877;28;20418;-81
2021/08/18 01:46:15;;;;;;;;;;;;;;;-144.99;100.00;52431.78;5016143;28;20064;-81
2021/08/18 01:48:42;;;;;;;;;;;;;;;-144.99;100.00;52458.28;5025606;28;20054;-80
2021/08/18 01:51:08;;;;;;;;;;;;;;;-144.99;100.00;52452.16;5031061;28;20037;-79
2021/08/18 01:53:36;;;;;;;;;;;;;;;-144.99;100.00;52395.09;5037704;28;19979;-80
2021/08/18 01:56:03;;;;;;;;;;;;;;;-144.99;100.00;52431.78;5027798;28;20034;-79
2021/08/18 01:58:32;;;;;;;;;;;;;;;-144.99;100.00;52431.78;5022520;28;20090;-78
2021/08/18 02:00:59;;;;;;;;;;;;;;;-144.99;100.00;52403.25;5036721;28;19982;-78
2021/08/18 02:03:27;;;;;;;;;;;;;;;-144.99;100.00;52446.06;5039850;28;20011;-78
2021/08/18 02:05:53;;;;;;;;;;;;;;;-144.99;100.00;52441.97;5032886;28;20269;-77
2021/08/18 02:08:20;;;;;;;;;;;;;;;-144.99;100.00;52431.78;5036387;28;20033;-79
2021/08/18 02:10:46;;;;;;;;;;;;;;;-144.99;100.00;52456.25;5030409;28;20045;-78
2021/08/18 02:13:13;;;;;;;;;;;;;;;-144.99;100.00;52452.16;5017646;28;20443;-78
2021/08/18 02:15:40;;;;;;;;;;;;;;;-144.99;100.00;52472.56;5016640;28;20487;-78
2021/08/18 02:18:07;;;;;;;;;;;;;;;-144.99;100.00;52456.25;5036249;28;20447;-77
2021/08/18 02:20:36;;;;;;;;;;;;;;;-144.99;100.00;52464.41;5040468;28;19975;-76
2021/08/18 02:23:03;;;;;;;;;;;;;;;-144.99;100.00;52476.63;5016381;28;20094;-79
2021/08/18 02:25:29;;;;;;;;;;;;;;;-144.99;100.00;52441.97;5010614;28;20033;-78
2021/08/18 02:27:56;;;;;;;;;;;;;;;-144.99;100.00;52419.56;5028481;28;20433;-77
2021/08/18 02:30:24;;;;;;;;;;;;;;;-144.99;100.00;52484.78;5037888;28;20029;-80
2021/08/18 02:32:51;;;;;;;;;;;;;;;-144.99;100.00;52441.97;5039977;28;20373;-80
2021/08/18 02:35:18;;;;;;;;;;;;;;;-144.99;100.00;52464.41;5013655;28;20034;-80
2021/08/18 02:37:46;;;;;;;;;;;;;;;-144.99;100.00;52488.84;5029695;28;20433;-76
2021/08/18 02:40:16;;;;;;;;;;;;;;;-144.99;100.00;52439.94;5046628;28;19939;-79
2021/08/18 02:42:43;;;;;;;;;;;;;;;-144.99;100.00;52464.41;5017795;28;19980;-77
2021/08/18 02:45:10;;;;;;;;;;;;;;;-144.99;100.00;52460.31;5010527;28;20086;-78
2021/08/18 02:47:36;;;;;;;;;;;;;;;-144.99;100.00;52452.16;5018479;28;19975;-78
2021/08/18 02:50:03;;;;;;;;;;;;;;;-144.99;100.00;52464.41;5041200;28;20023;-77
2021/08/18 02:52:30;;;;;;;;;;;;;;;-144.99;100.00;52468.47;5015059;28;20045;-77
2021/08/18 02:54:57;;;;;;;;;;;;;;;-144.99;100.00;52456.25;5023271;28;20032;-76
2021/08/18 02:57:24;;;;;;;;;;;;;;;-144.99;100.00;52464.41;5015581;28;19995;-77
2021/08/18 02:59:52;;;;;;;;;;;;;;;-144.99;100.00;52464.41;5024921;28;20059;-77
2021/08/18 03:02:18;;;;;;;;;;;;;;;-144.99;100.00;52462.34;5029177;28;19975;-77
2021/08/18 03:04:44;;;;;;;;;;;;;;;-144.99;100.00;52490.91;5029134;28;19995;-77
2021/08/18 03:07:11;;;;;;;;;;;;;;;-144.99;100.00;52431.78;5018720;28;20024;-77
2021/08/18 03:09:37;;;;;;;;;;;;;;;-144.99;100.00;52448.09;5022894;28;20030;-76
2021/08/18 03:12:06;;;;;;;;;;;;;;;-144.99;100.00;52488.84;5043251;28;20382;-78
2021/08/18 03:14:33;;;;;;;;;;;;;;;-144.99;100.00;52488.84;5009684;28;20034;-77
2021/08/18 03:16:59;;;;;;;;;;;;;;;-144.99;100.00;52456.25;5015731;28;20076;-77
2021/08/18 03:19:26;;;;;;;;;;;;;;;-144.99;100.00;52460.31;5034980;28;20337;-79
2021/08/18 03:21:52;;;;;;;;;;;;;;;-144.99;100.00;52476.63;5030699;28;20058;-79
2021/08/18 03:24:19;;;;;;;;;;;;;;;-144.99;100.00;52456.25;5010170;28;19980;-79
2021/08/18 03:26:45;;;;;;;;;;;;;;;-144.99;100.00;52452.16;5011072;28;19979;-77
2021/08/18 03:29:13;;;;;;;;;;;;;;;-144.99;100.00;52450.13;5015327;28;20045;-78
2021/08/18 03:31:40;;;;;;;;;;;;;;;-144.99;100.00;52444.03;5045174;28;20015;-77
2021/08/18 03:34:06;;;;;;;;;;;;;;;-144.99;100.00;52464.41;5022261;28;20058;-78
2021/08/18 03:36:32;;;;;;;;;;;;;;;-144.99;100.00;52466.44;5009225;28;20031;-78
2021/08/18 03:38:59;;;;;;;;;;;;;;;-144.99;100.00;52468.47;5010878;28;20086;-77
2021/08/18 03:41:26;;;;;;;;;;;;;;;-144.99;100.00;52460.31;5034889;28;20015;-77
2021/08/18 03:43:52;;;;;;;;;;;;;;;-144.99;100.00;52448.09;5024514;28;20443;-77
2021/08/18 03:46:20;;;;;;;;;;;;;;;-144.99;100.00;52448.09;5009175;28;20434;-78
2021/08/18 03:48:46;;;;;;;;;;;;;;;-144.99;100.00;52482.75;5021644;28;20037;-78
2021/08/18 03:51:13;;;;;;;;;;;;;;;-144.99;100.00;52431.78;5021227;28;20065;-76
2021/08/18 03:53:39;;;;;;;;;;;;;;;-144.99;100.00;52476.63;5045638;28;20026;-77
2021/08/18 03:56:06;;;;;;;;;;;;;;;-144.99;100.00;52456.25;5027457;28;20006;-77
2021/08/18 03:58:32;;;;;;;;;;;;;;;-144.99;100.00;52452.16;5009404;28;20085;-77
2021/08/18 04:00:59;;;;;;;;;;;;;;;-144.99;100.00;52472.56;5020397;28;20333;-76
2021/08/18 04:03:27;;;;;;;;;;;;;;;-144.99;100.00;52446.06;5027954;28;20066;-75
2021/08/18 04:05:53;;;;;;;;;;;;;;;-144.99;100.00;52460.31;5032910;28;20070;-79
2021/08/18 04:08:19;;;;;;;;;;;;;;;-144.99;100.00;52452.16;5033952;28;20050;-78
2021/08/18 04:10:46;;;;;;;;;;;;;;;-144.99;100.00;52476.63;5011045;28;20070;-77
2021/08/18 04:13:12;;;;;;;;;;;;;;;-144.99;100.00;52460.31;5034073;28;20033;-78
2021/08/18 04:15:39;;;;;;;;;;;;;;;-144.99;100.00;52393.06;5016144;28;20445;-79
2021/08/18 04:18:06;;;;;;;;;;;;;;;-144.99;100.00;52462.34;5041239;28;20033;-79
2021/08/18 04:20:34;;;;;;;;;;;;;;;-144.99;100.00;52415.47;5032856;28;19979;-80
2021/08/18 04:23:01;;;;;;;;;;;;;;;-144.99;100.00;52407.31;5029123;28;20033;-74
2021/08/18 04:25:27;;;;;;;;;;;;;;;-144.99;100.00;52419.56;5036002;28;20022;-73
2021/08/18 04:27:54;;;;;;;;;;;;;;;-144.99;100.00;52435.88;5012168;28;20038;-72
2021/08/18 04:30:20;;;;;;;;;;;;;;;-144.99;100.00;52431.78;5016814;28;20059;-74
2021/08/18 04:32:47;;;;;;;;;;;;;;;-144.99;100.00;52480.72;5032967;28;20022;-73
2021/08/18 04:35:14;;;;;;;;;;;;;;;-144.99;100.00;52444.03;5030051;28;19979;-80
2021/08/18 04:37:42;;;;;;;;;;;;;;;-144.99;100.00;52413.44;5029303;28;20395;-82
2021/08/18 04:40:10;;;;;;;;;;;;;;;-144.99;100.00;52439.94;5027909;28;19996;-82
2021/08/18 04:42:37;;;;;;;;;;;;;;;-144.99;100.00;52435.88;5056276;22;20784;-77
2021/08/18 04:45:04;;;;;;;;;;;;;;;-144.99;100.00;52472.56;5052504;28;20057;-76
2021/08/18 04:47:31;;;;;;;;;;;;;;;-144.99;100.00;52423.63;5059089;28;20018;-78
2021/08/18 04:49:57;;;;;;;;;;;;;;;-144.99;100.00;52450.13;5079755;28;20267;-76
2021/08/18 04:52:24;;;;;;;;;;;;;;;-144.99;100.00;52448.09;5066405;28;20003;-75
2021/08/18 04:54:51;;;;;;;;;;;;;;;-144.99;100.00;52454.22;5054261;28;19977;-76
2021/08/18 04:57:18;;;;;;;;;;;;;;;-144.99;100.00;52419.56;5054597;28;19965;-74
2021/08/18 04:59:44;;;;;;;;;;;;;;;-144.99;100.00;52464.41;5054984;28;19979;-73
2021/08/18 05:02:10;;;;;;;;;;;;;;;-144.99;100.00;52419.56;5052784;28;19987;-75
2021/08/18 05:04:37;;;;;;;;;;;;;;;-144.99;100.00;52439.94;5051686;28;20066;-76
2021/08/18 05:07:03;;;;;;;;;;;;;;;-144.99;100.00;52454.22;4002347;28;10000721;-74
2021/08/18 05:09:29;;;;;;;;;;;;;;;-144.99;100.00;52419.56;5049172;28;19983;-75
2021/08/18 05:11:57;;;;;;;;;;;;;;;-144.99;100.00;52456.25;5054052;28;20008;-74
2021/08/18 05:14:24;;;;;;;;;;;;;;;-144.99;100.00;52435.88;5052105;28;20001;-73
2021/08/18 05:16:50;;;;;;;;;;;;;;;-144.99;100.00;52423.63;5049608;28;19988;-75
2021/08/18 05:19:17;;;;;;;;;;;;;;;-144.99;100.00;52431.78;5049944;28;20027;-76
2021/08/18 05:21:43;;;;;;;;;;;;;;;-144.99;100.00;52435.88;5050391;28;20012;-73
2021/08/18 05:24:10;;;;;;;;;;;;;;;-144.99;100.00;52384.91;5050782;28;20085;-74
2021/08/18 05:26:36;;;;;;;;;;;;;;;-144.99;100.00;52433.81;5050838;28;20480;-72
2021/08/18 05:29:03;;;;;;;;;;;;;;;-144.99;100.00;52444.03;5045912;28;20407;-75
2021/08/18 05:31:30;;;;;;;;;;;;;;;-144.99;100.00;52395.09;5046505;28;20310;-78
2021/08/18 05:33:56;;;;;;;;;;;;;;;-144.99;100.00;52429.75;5053748;28;20013;-75
2021/08/18 05:36:23;;;;;;;;;;;;;;;-144.99;100.00;52411.41;5053237;28;20351;-76
2021/08/18 05:38:49;;;;;;;;;;;;;;;-144.99;100.00;52444.03;5045630;28;20076;-74
2021/08/18 05:41:15;;;;;;;;;;;;;;;-144.99;100.00;52454.22;5048315;28;20444;-75
2021/08/18 05:43:42;;;;;;;;;;;;;;;-144.99;100.00;52427.72;5043657;28;20052;-77
2021/08/18 05:46:10;;;;;;;;;;;;;;;-144.99;100.00;52444.03;5050919;28;19989;-75
2021/08/18 05:48:36;;;;;;;;;;;;;;;-144.99;100.00;52431.78;5050919;28;19979;-75
2021/08/18 05:51:02;;;;;;;;;;;;;;;-144.99;100.00;52427.72;5048931;28;19993;-74
2021/08/18 05:53:30;;;;;;;;;;;;;;;-144.99;100.00;52435.88;5060629;28;19993;-75
2021/08/18 05:55:56;;;;;;;;;;;;;;;-144.99;100.00;52399.19;5044407;28;19987;-74
2021/08/18 05:58:22;;;;;;;;;;;;;;;-144.99;100.00;52407.31;5050976;28;20016;-75
2021/08/18 06:00:48;;;;;;;;;;;;;;;-144.99;100.00;52407.31;5050140;28;19940;-76
2021/08/18 06:03:16;;;;;;;;;;;;;;;-144.99;100.00;52388.97;5045423;28;19955;-75
2021/08/18 06:05:42;;;;;;;;;;;;;;;-144.99;100.00;52456.25;5050839;28;20456;-75
2021/08/18 06:08:09;;;;;;;;;;;;;;;-144.99;100.00;52391.03;5049310;28;19994;-76
2021/08/18 06:10:36;;;;;;;;;;;;;;;-144.99;100.00;52437.91;5051257;28;19978;-74
2021/08/18 06:13:02;;;;;;;;;;;;;;;-144.99;100.00;52427.72;5046999;28;20038;-75
2021/08/18 06:15:29;;;;;;;;;;;;;;;-144.99;100.00;52376.75;5044489;28;20022;-74
2021/08/18 06:17:55;;;;;;;;;;;;;;;-144.99;100.00;52464.41;5048903;28;19994;-73
2021/08/18 06:20:23;;;;;;;;;;;;;;;-144.99;100.00;52431.78;5041753;28;19979;-76
2021/08/18 06:22:49;;;;;;;;;;;;;;;-144.99;100.00;52427.72;5040029;28;19963;-75
2021/08/18 06:25:16;;;;;;;;;;;;;;;-144.99;100.00;52407.31;5045798;28;20426;-74
2021/08/18 06:27:42;;;;;;;;;;;;;;;-144.99;100.00;52384.91;5044182;28;19986;-78
2021/08/18 06:30:10;;;;;;;;;;;;;;;-144.99;100.00;52433.81;5050782;28;19975;-75
2021/08/18 06:32:36;;;;;;;;;;;;;;;-144.99;100.00;52433.81;5048365;28;20002;-77
2021/08/18 06:35:03;;;;;;;;;;;;;;;-144.99;100.00;52397.13;5051482;28;19975;-76
2021/08/18 06:37:31;;;;;;;;;;;;;;;-144.99;100.00;52407.31;5050257;28;19979;-76
2021/08/18 06:39:58;;;;;;;;;;;;;;;-144.99;100.00;52415.47;5038190;28;19995;-75
2021/08/18 06:42:25;;;;;;;;;;;;;;;-144.99;100.00;52399.19;5048530;28;19979;-77
2021/08/18 06:44:51;;;;;;;;;;;;;;;-144.99;100.00;52419.56;5049160;28;20129;-77
2021/08/18 06:47:18;;;;;;;;;;;;;;;-144.99;100.00;52407.31;5036620;28;19976;-77
2021/08/18 06:49:45;;;;;;;;;;;;;;;-144.99;100.00;52407.31;5063074;28;19969;-81
2021/08/18 06:52:11;;;;;;;;;;;;;;;-144.99;100.00;52419.56;5063944;28;19985;-77
2021/08/18 06:54:39;;;;;;;;;;;;;;;-144.99;100.00;52411.41;5048777;28;19989;-76
2021/08/18 06:57:06;;;;;;;;;;;;;;;-144.99;100.00;52439.94;5050349;28;19988;-76
2021/08/18 06:59:32;;;;;;;;;;;;;;;-144.99;100.00;52395.09;5049197;28;20491;-77
2021/08/18 07:01:58;;;;;;;;;;;;;;;-144.99;100.00;52415.47;5042629;28;19977;-74
2021/08/18 07:04:25;;;;;;;;;;;;;;;-144.99;100.00;52415.47;5042336;28;19994;-73
2021/08/18 07:06:51;;;;;;;;;;;;;;;-144.99;100.00;52407.31;5049356;28;19977;-76
2021/08/18 07:09:17;;;;;;;;;;;;;;;-144.99;100.00;52384.91;5042951;28;19993;-75
2021/08/18 07:11:45;;;;;;;;;;;;;;;-144.99;100.00;52407.31;5029987;28;20469;-74
2021/08/18 07:14:12;;;;;;;;;;;;;;;-144.99;100.00;52456.25;5035365;28;19996;-75
2021/08/18 07:16:38;;;;;;;;;;;;;;;-144.99;100.00;52378.78;5043868;28;20460;-74
2021/08/18 07:19:04;;;;;;;;;;;;;;;-144.99;100.00;52407.31;5048088;28;20001;-74
2021/08/18 07:21:31;;;;;;;;;;;;;;;-144.99;100.00;52413.44;5045802;28;19992;-74
2021/08/18 07:23:57;;;;;;;;;;;;;;;-144.99;100.00;52411.41;5047567;28;20005;-73
2021/08/18 07:26:25;;;;;;;;;;;;;;;-144.99;100.00;52407.31;5045642;28;20479;-74
2021/08/18 07:28:53;;;;;;;;;;;;;;;-144.99;100.00;52425.66;5041704;28;20030;-74
2021/08/18 07:31:19;;;;;;;;;;;;;;;-144.99;100.00;52407.31;5045229;28;20003;-73
2021/08/18 07:33:45;;;;;;;;;;;;;;;-144.99;100.00;52439.94;5048454;28;20005;-74
2021/08/18 07:36:11;;;;;;;;;;;;;;;-144.99;100.00;52423.63;5046035;28;19987;-73
2021/08/18 07:38:38;;;;;;;;;;;;;;;-144.99;100.00;52411.41;5042998;28;20378;-72
2021/08/18 07:41:04;;;;;;;;;;;;;;;-144.99;100.00;52399.19;5035873;28;19980;-73
2021/08/18 07:43:30;;;;;;;;;;;;;;;-144.99;100.00;52407.31;5038854;28;20107;-73
2021/08/18 07:45:58;;;;;;;;;;;;;;;-144.99;100.00;52386.94;5049517;28;19981;-73
2021/08/18 07:48:25;;;;;;;;;;;;;;;-144.99;100.00;52382.88;5052459;28;19989;-76
2021/08/18 07:50:51;;;;;;;;;;;;;;;-144.99;100.00;52399.19;5048432;28;20057;-74
2021/08/18 07:53:18;;;;;;;;;;;;;;;-144.99;100.00;52372.69;5048109;28;20088;-74
2021/08/18 07:55:44;;;;;;;;;;;;;;;-144.99;100.00;52378.78;5045816;28;19977;-74
2021/08/18 07:58:10;;;;;;;;;;;;;;;-144.99;100.00;52382.88;5049944;28;19980;-73
2021/08/18 08:00:39;;;;;;;;;;;;;;;-144.99;100.00;52423.63;5038797;28;19981;-76
2021/08/18 08:03:09;;;;;;;;;;;;;;;-144.99;100.00;52352.28;5053645;28;20618;-76
2021/08/18 08:05:35;;;;;;;;;;;;;;;-144.99;100.00;52395.09;5043713;28;20020;-74
2021/08/18 08:08:02;;;;;;;;;;;;;;;-144.99;100.00;52399.19;5045946;28;19980;-75
2021/08/18 08:10:28;;;;;;;;;;;;;;;-144.99;100.00;52431.78;5049061;28;20110;-75
2021/08/18 08:12:55;;;;;;;;;;;;;;;-144.99;100.00;52384.91;5042495;28;19992;-75
2021/08/18 08:15:21;;;;;;;;;;;;;;;-144.99;100.00;52417.53;5039112;28;19988;-74
2021/08/18 08:17:47;;;;;;;;;;;;;;;-144.99;100.00;52391.03;5045534;28;20137;-76
2021/08/18 08:20:15;;;;;;;;;;;;;;;-144.99;100.00;52388.97;5045424;28;20004;-75
2021/08/18 08:22:42;;;;;;;;;;;;;;;-144.99;100.00;52407.31;5046359;28;20088;-75
2021/08/18 08:25:08;;;;;;;;;;;;;;;-144.99;100.00;52386.94;5047943;28;19981;-75
2021/08/18 08:27:35;;;;;;;;;;;;;;;-144.99;100.00;52399.19;5045203;28;19993;-75
2021/08/18 08:30:01;;;;;;;;;;;;;;;-144.99;100.00;52391.03;5046507;28;19985;-75
2021/08/18 08:32:27;;;;;;;;;;;;;;;-144.99;100.00;52386.94;5045599;28;19991;-74
2021/08/18 08:34:53;;;;;;;;;;;;;;;-144.99;100.00;52395.09;5048385;28;19992;-75
2021/08/18 08:37:22;;;;;;;;;;;;;;;-144.99;100.00;52391.03;5045312;28;20393;-75
2021/08/18 08:39:48;;;;;;;;;;;;;;;-144.99;100.00;52427.72;5047599;28;19996;-72
2021/08/18 08:42:15;;;;;;;;;;;;;;;-144.99;100.00;52421.59;5047107;28;20415;-76
2021/08/18 08:44:41;;;;;;;;;;;;;;;-144.99;100.00;52415.47;5041339;28;20020;-75
2021/08/18 08:47:08;;;;;;;;;;;;;;;-144.99;100.00;52378.78;5035701;28;19972;-75
2021/08/18 08:49:34;;;;;;;;;;;;;;;-144.99;100.00;52370.63;5042521;28;19988;-75
2021/08/18 08:52:01;;;;;;;;;;;;;;;-144.99;100.00;52358.41;5051566;28;20039;-75
2021/08/18 08:54:28;;;;;;;;;;;;;;;-144.99;100.00;52407.31;5049716;28;20579;-74
2021/08/18 08:56:55;;;;;;;;;;;;;;;-144.99;100.00;52374.72;5045282;28;20360;-75
2021/08/18 08:59:21;;;;;;;;;;;;;;;-144.99;100.00;52362.50;5041712;28;19997;-75
2021/08/18 09:02:01;;;;;;;;;;;;;;;-144.99;100.00;52391.03;5035940;28;19993;-76
2021/08/18 09:04:28;;;;;;;;;;;;;;;-144.99;100.00;52378.78;5046391;28;20488;-75
2021/08/18 09:07:03;;;;;;;;;;;;;;;-144.99;100.00;52417.53;5048997;28;19987;-76
2021/08/18 09:09:31;;;;;;;;;;;;;;;-144.99;99.98;52407.31;5047802;28;20438;-76
2021/08/18 09:12:02;;;;;;;;;;;;;;;-144.99;99.53;52366.56;5050725;28;20448;-76
2021/08/18 09:14:29;;;;;;;;;;;;;;;-144.99;98.79;52431.78;5051741;28;20031;-77
2021/08/18 09:16:55;;;;;;;;;;;;;;;-144.99;97.99;52358.41;5050889;28;20019;-75
2021/08/18 09:19:27;;;;;;;;;;;;;;;-144.99;97.93;52362.50;5040503;28;20388;-75
2021/08/18 09:21:53;;;;;;;;;;;;;;;-144.99;97.67;52366.56;5043270;28;20373;-74
2021/08/18 09:24:29;;;;;;;;;;;;;;;-144.99;97.11;52358.41;5030374;28;19983;-75
2021/08/18 09:26:57;;;;;;;;;;;;;;;-144.99;96.64;52372.69;5030889;28;19988;-76
2021/08/18 09:29:44;;;;;;;;;;;;;;;-144.99;96.31;52362.50;5040793;28;19982;-76
2021/08/18 09:32:21;;;;;;;;;;;;;;;-144.99;95.74;52346.19;5046579;28;19980;-75
2021/08/18 09:34:51;;;;;;;;;;;;;;;-144.99;95.73;52370.63;5048286;28;20059;-76
2021/08/18 09:37:18;;;;;;;;;;;;;;;-144.99;95.53;52366.56;5047206;28;19981;-76
2021/08/18 09:39:44;;;;;;;;;;;;;;;-144.99;95.42;52384.91;5044381;28;20454;-77
2021/08/18 09:42:22;;;;;;;;;;;;;;;-144.99;95.21;52399.19;5060665;28;19984;-76
2021/08/18 09:44:48;;;;;;;;;;;;;;;-144.99;95.32;52346.19;5049840;28;20422;-77
2021/08/18 09:47:14;;;;;;;;;;;;;;;-144.99;95.66;52391.03;5051328;28;19981;-78
2021/08/18 09:49:42;;;;;;;;;;;;;;;-144.99;95.08;52366.56;5036253;28;19985;-77
2021/08/18 09:52:10;;;;;;;;;;;;;;;-144.99;95.41;52370.63;5043481;28;20071;-76
2021/08/18 09:54:36;;;;;;;;;;;;;;;-144.99;95.35;52370.63;5050273;28;20019;-77
2021/08/18 09:57:07;;;;;;;;;;;;;;;-144.99;95.28;52362.50;5045025;28;19981;-76
2021/08/18 09:59:36;;;;;;;;;;;;;;;-144.99;95.22;52346.19;5048109;28;20090;-75
2021/08/18 10:02:04;;;;;;;;;;;;;;;-144.99;95.54;52358.41;5051401;28;20489;-77
2021/08/18 10:04:30;;;;;;;;;;;;;;;-144.99;94.90;52333.94;5060699;28;20068;-77
2021/08/18 10:06:56;;;;;;;;;;;;;;;-144.99;94.90;52370.63;5055323;28;19981;-76
2021/08/18 10:09:23;;;;;;;;;;;;;;;-144.99;94.92;52368.59;5043179;28;19989;-74
2021/08/18 10:11:49;;;;;;;;;;;;;;;-144.99;95.18;52419.56;5044259;28;20314;-76
2021/08/18 10:14:16;;;;;;;;;;;;;;;-144.99;95.08;52413.44;5042797;28;20560;-75
2021/08/18 10:16:43;;;;;;;;;;;;;;;-144.99;95.21;52366.56;5043341;28;19957;-76
2021/08/18 10:19:10;;;;;;;;;;;;;;;-144.99;95.18;52401.22;5046653;28;19977;-75
2021/08/18 10:21:37;;;;;;;;;;;;;;;-144.99;95.20;52370.63;5045785;28;20004;-76
2021/08/18 10:24:04;;;;;;;;;;;;;;;-144.99;94.90;52366.56;5051838;28;19997;-74
2021/08/18 10:26:49;;;;;;;;;;;;;;;-144.99;96.64;52386.94;5050330;28;19988;-77
2021/08/18 10:29:17;;;;;;;;;;;;;;;-144.99;96.45;52380.84;5043106;28;19980;-76
2021/08/18 10:31:57;;;;;;;;;;;;;;;-144.99;95.42;52382.88;5050888;28;19981;-75
2021/08/18 10:34:34;;;;;;;;;;;;;;;-144.99;94.73;52358.41;5050359;28;20393;-78
2021/08/18 10:37:05;;;;;;;;;;;;;;;-144.99;94.46;52382.88;5031429;28;19985;-77
2021/08/18 10:39:35;;;;;;;;;;;;;;;-144.99;94.78;52382.88;5044645;28;20523;-77
2021/08/18 10:42:03;;;;;;;;;;;;;;;-144.99;94.25;52366.56;5040652;28;19986;-76
2021/08/18 10:44:37;;;;;;;;;;;;;;;-144.99;93.45;52333.94;5029396;28;20005;-78
2021/08/18 10:47:19;;;;;;;;;;;;;;;-144.99;91.33;52378.78;5039376;28;19981;-76
2021/08/18 10:49:46;;;;;;;;;;;;;;;-144.99;90.35;52360.44;5042653;28;19977;-76
2021/08/18 10:52:33;;;;;;;;;;;;;;;-144.99;89.64;52370.63;5049586;28;19981;-77
2021/08/18 10:55:03;;;;;;;;;;;;;;;-144.99;88.01;52366.56;5049251;28;19984;-77
2021/08/18 10:57:40;;;;;;;;;;;;;;;-144.99;87.65;52391.03;5047210;28;20086;-76
2021/08/18 11:00:10;;;;;;;;;;;;;;;-144.99;88.18;52362.50;5049433;28;20003;-75
2021/08/18 11:02:58;;;;;;;;;;;;;;;-144.99;88.54;52374.72;5047581;28;20007;-76
2021/08/18 11:05:25;;;;;;;;;;;;;;;-144.99;89.01;52409.38;5057100;28;19972;-77
2021/08/18 11:08:05;;;;;;;;;;;;;;;-144.99;89.21;52386.94;5065515;28;19981;-78
2021/08/18 11:10:32;;;;;;;;;;;;;;;-144.99;89.71;52374.72;5060228;28;19984;-80
2021/08/18 11:12:59;;;;;;;;;;;;;;;-144.99;89.73;52378.78;5065251;28;20003;-78
2021/08/18 11:15:44;;;;;;;;;;;;;;;-144.99;88.79;52366.56;5061217;28;19992;-77
2021/08/18 11:18:12;;;;;;;;;;;;;;;-144.99;91.18;52395.09;5050932;28;19980;-77
2021/08/18 11:20:38;;;;;;;;;;;;;;;-144.99;92.87;52370.63;5042240;28;19993;-77
2021/08/18 11:23:06;;;;;;;;;;;;;;;-144.99;92.50;52376.75;5052813;28;19996;-75
2021/08/18 11:25:41;;;;;;;;;;;;;;;-144.99;91.60;52360.44;5044078;28;20063;-78
2021/08/18 11:28:07;;;;;;;;;;;;;;;-144.99;91.44;52350.25;5030855;28;19976;-77
2021/08/18 11:30:34;;;;;;;;;;;;;;;-144.99;93.68;52407.31;5048755;28;19971;-76
2021/08/18 11:33:15;;;;;;;;;;;;;;;-144.99;94.86;52378.78;5049363;28;20008;-76
2021/08/18 11:35:42;;;;;;;;;;;;;;;-144.99;94.58;52362.50;5037757;28;19984;-75
2021/08/18 11:38:09;;;;;;;;;;;;;;;-144.99;94.74;52407.31;5046059;28;19980;-76
2021/08/18 11:40:36;;;;;;;;;;;;;;;-144.99;94.93;52370.63;5055142;28;19992;-76
2021/08/18 11:43:02;;;;;;;;;;;;;;;-144.99;93.84;52321.72;5047005;28;19973;-77
2021/08/18 11:45:29;;;;;;;;;;;;;;;-144.99;93.31;52386.94;5050822;28;19984;-76
2021/08/18 11:48:04;;;;;;;;;;;;;;;-144.99;91.65;52366.56;5050251;28;20611;-73
2021/08/18 11:50:30;;;;;;;;;;;;;;;-144.99;90.93;52391.03;5046305;28;20124;-76
2021/08/18 11:53:00;;;;;;;;;;;;;;;-144.99;90.07;52325.81;5028931;28;20009;-77
2021/08/18 11:55:27;;;;;;;;;;;;;;;-144.99;89.84;52362.50;5040620;28;19977;-76
2021/08/18 11:57:57;;;;;;;;;;;;;;;-144.99;88.93;52376.75;5050526;28;20367;-77
2021/08/18 12:00:24;;;;;;;;;;;;;;;-144.99;88.40;52338.03;5047369;28;20238;-77
2021/08/18 12:02:50;;;;;;;;;;;;;;;-144.99;88.79;52362.50;5049992;28;19991;-78
2021/08/18 12:05:17;;;;;;;;;;;;;;;-144.99;88.32;52333.94;5050936;28;20375;-77
2021/08/18 12:07:43;;;;;;;;;;;;;;;-144.99;87.60;52321.72;5040886;28;19976;-76
2021/08/18 12:10:15;;;;;;;;;;;;;;;-144.99;85.08;52325.81;5038424;28;19979;-75
2021/08/18 12:12:42;;;;;;;;;;;;;;;-144.99;82.63;52162.75;5041589;28;20324;-76
2021/08/18 12:15:09;;;;;;;;;;;;;;;-144.99;79.94;52329.88;5072411;28;19968;-81
2021/08/18 12:17:37;;;;;;;;;;;;;;;-144.99;79.58;52319.69;5058306;28;20046;-78
2021/08/18 12:20:04;;;;;;;;;;;;;;;-144.99;79.07;52276.88;5046003;28;19999;-77
2021/08/18 12:22:31;;;;;;;;;;;;;;;-144.99;76.49;52162.75;5042128;28;20435;-78